sensor_id;sensor_type;location;lat;lon;timestamp;P1;durP1;ratioP1;P2;durP2;ratioP2
6432;SDS011;3249;42.690;23.260;2023-03-01T00:00:15;6.23;;;5.60;;
6432;SDS011;3249;42.690;23.260;2023-03-01T00:02:44;6.03;;;5.50;;
6432;SDS011;3249;42.690;23.260;2023-03-01T00:05:15;5.80;;;5.07;;
6432;SDS011;3249;42.690;23.260;2023-03-01T00:07:44;6.23;;;5.60;;
6432;SDS011;3249;42.690;23.260;2023-03-01T00:10:13;5.70;;;5.30;;
6432;SDS011;3249;42.690;23.260;2023-03-01T00:12:42;6.03;;;5.53;;
6432;SDS011;3249;42.690;23.260;2023-03-01T00:15:11;6.30;;;5.80;;
6432;SDS011;3249;42.690;23.260;2023-03-01T00:17:40;6.73;;;6.13;;
6432;SDS011;3249;42.690;23.260;2023-03-01T00:20:10;9.90;;;8.87;;
6432;SDS011;3249;42.690;23.260;2023-03-01T00:22:42;15.60;;;13.90;;
6432;SDS011;3249;42.690;23.260;2023-03-01T00:25:11;22.47;;;19.07;;
6432;SDS011;3249;42.690;23.260;2023-03-01T00:27:40;14.47;;;12.97;;
6432;SDS011;3249;42.690;23.260;2023-03-01T00:30:09;12.17;;;11.00;;
6432;SDS011;3249;42.690;23.260;2023-03-01T00:32:39;9.07;;;8.27;;
6432;SDS011;3249;42.690;23.260;2023-03-01T00:35:08;8.77;;;8.00;;
6432;SDS011;3249;42.690;23.260;2023-03-01T00:37:37;10.17;;;9.17;;
6432;SDS011;3249;42.690;23.260;2023-03-01T00:40:10;11.87;;;10.77;;
6432;SDS011;3249;42.690;23.260;2023-03-01T00:42:41;8.10;;;7.40;;
6432;SDS011;3249;42.690;23.260;2023-03-01T00:45:10;10.00;;;9.20;;
6432;SDS011;3249;42.690;23.260;2023-03-01T00:47:39;8.70;;;8.00;;
6432;SDS011;3249;42.690;23.260;2023-03-01T00:50:09;10.13;;;9.23;;
6432;SDS011;3249;42.690;23.260;2023-03-01T00:52:39;9.93;;;8.93;;
6432;SDS011;3249;42.690;23.260;2023-03-01T00:55:11;9.13;;;8.23;;
6432;SDS011;3249;42.690;23.260;2023-03-01T00:57:40;8.87;;;7.57;;
6432;SDS011;3249;42.690;23.260;2023-03-01T01:00:10;8.27;;;7.47;;
6432;SDS011;3249;42.690;23.260;2023-03-01T01:02:40;6.03;;;5.47;;
6432;SDS011;3249;42.690;23.260;2023-03-01T01:05:09;8.13;;;5.93;;
6432;SDS011;3249;42.690;23.260;2023-03-01T01:07:38;6.70;;;6.10;;
6432;SDS011;3249;42.690;23.260;2023-03-01T01:10:07;6.23;;;5.67;;
6432;SDS011;3249;42.690;23.260;2023-03-01T01:12:43;6.07;;;5.57;;
6432;SDS011;3249;42.690;23.260;2023-03-01T01:15:12;6.00;;;5.50;;
6432;SDS011;3249;42.690;23.260;2023-03-01T01:17:42;5.30;;;4.90;;
6432;SDS011;3249;42.690;23.260;2023-03-01T01:20:11;4.93;;;4.60;;
6432;SDS011;3249;42.690;23.260;2023-03-01T01:22:40;4.83;;;4.53;;
6432;SDS011;3249;42.690;23.260;2023-03-01T01:25:12;4.87;;;4.47;;
6432;SDS011;3249;42.690;23.260;2023-03-01T01:27:41;4.50;;;4.20;;
6432;SDS011;3249;42.690;23.260;2023-03-01T01:30:11;4.83;;;4.53;;
6432;SDS011;3249;42.690;23.260;2023-03-01T01:32:41;5.17;;;4.77;;
6432;SDS011;3249;42.690;23.260;2023-03-01T01:35:09;4.10;;;3.90;;
6432;SDS011;3249;42.690;23.260;2023-03-01T01:37:44;4.00;;;3.77;;
6432;SDS011;3249;42.690;23.260;2023-03-01T01:42:47;3.47;;;3.27;;
6432;SDS011;3249;42.690;23.260;2023-03-01T01:45:30;3.80;;;3.60;;
6432;SDS011;3249;42.690;23.260;2023-03-01T01:48:02;3.73;;;3.43;;
6432;SDS011;3249;42.690;23.260;2023-03-01T01:50:34;4.10;;;3.77;;
6432;SDS011;3249;42.690;23.260;2023-03-01T01:53:11;3.73;;;3.53;;
6432;SDS011;3249;42.690;23.260;2023-03-01T01:55:47;3.03;;;2.90;;
6432;SDS011;3249;42.690;23.260;2023-03-01T01:58:20;3.40;;;3.20;;
6432;SDS011;3249;42.690;23.260;2023-03-01T02:00:50;3.60;;;3.40;;
6432;SDS011;3249;42.690;23.260;2023-03-01T02:03:20;3.10;;;2.90;;
6432;SDS011;3249;42.690;23.260;2023-03-01T02:05:57;3.13;;;2.93;;
6432;SDS011;3249;42.690;23.260;2023-03-01T02:08:32;3.40;;;3.20;;
6432;SDS011;3249;42.690;23.260;2023-03-01T02:11:06;3.30;;;3.10;;
6432;SDS011;3249;42.690;23.260;2023-03-01T02:13:40;3.40;;;3.20;;
6432;SDS011;3249;42.690;23.260;2023-03-01T02:16:10;3.63;;;3.43;;
6432;SDS011;3249;42.690;23.260;2023-03-01T02:18:42;2.83;;;2.63;;
6432;SDS011;3249;42.690;23.260;2023-03-01T02:21:16;3.07;;;2.90;;
6432;SDS011;3249;42.690;23.260;2023-03-01T02:23:55;2.70;;;2.60;;
6432;SDS011;3249;42.690;23.260;2023-03-01T02:26:29;2.90;;;2.70;;
6432;SDS011;3249;42.690;23.260;2023-03-01T02:29:08;2.70;;;2.60;;
6432;SDS011;3249;42.690;23.260;2023-03-01T02:31:37;3.37;;;3.17;;
6432;SDS011;3249;42.690;23.260;2023-03-01T02:34:13;2.70;;;2.60;;
6432;SDS011;3249;42.690;23.260;2023-03-01T02:36:44;2.83;;;2.73;;
6432;SDS011;3249;42.690;23.260;2023-03-01T02:39:17;3.07;;;2.87;;
6432;SDS011;3249;42.690;23.260;2023-03-01T02:41:51;3.17;;;3.07;;
6432;SDS011;3249;42.690;23.260;2023-03-01T02:44:25;3.60;;;3.40;;
6432;SDS011;3249;42.690;23.260;2023-03-01T02:46:55;3.40;;;3.20;;
6432;SDS011;3249;42.690;23.260;2023-03-01T02:49:26;3.97;;;3.77;;
6432;SDS011;3249;42.690;23.260;2023-03-01T02:55:10;3.20;;;2.90;;
6432;SDS011;3249;42.690;23.260;2023-03-01T02:57:43;3.70;;;3.50;;
6432;SDS011;3249;42.690;23.260;2023-03-01T03:00:19;3.80;;;3.50;;
6432;SDS011;3249;42.690;23.260;2023-03-01T03:02:52;4.43;;;4.10;;
6432;SDS011;3249;42.690;23.260;2023-03-01T03:05:24;4.10;;;3.80;;
6432;SDS011;3249;42.690;23.260;2023-03-01T03:07:56;4.60;;;4.30;;
6432;SDS011;3249;42.690;23.260;2023-03-01T03:10:27;3.93;;;3.67;;
6432;SDS011;3249;42.690;23.260;2023-03-01T03:12:58;3.93;;;3.73;;
6432;SDS011;3249;42.690;23.260;2023-03-01T03:15:32;4.23;;;3.93;;
6432;SDS011;3249;42.690;23.260;2023-03-01T03:18:02;4.47;;;4.17;;
6432;SDS011;3249;42.690;23.260;2023-03-01T03:20:33;4.47;;;4.07;;
6432;SDS011;3249;42.690;23.260;2023-03-01T03:23:03;4.40;;;4.10;;
6432;SDS011;3249;42.690;23.260;2023-03-01T03:25:32;4.07;;;3.83;;
6432;SDS011;3249;42.690;23.260;2023-03-01T03:28:03;4.67;;;4.37;;
6432;SDS011;3249;42.690;23.260;2023-03-01T03:30:38;4.60;;;4.30;;
6432;SDS011;3249;42.690;23.260;2023-03-01T03:33:09;4.97;;;4.67;;
6432;SDS011;3249;42.690;23.260;2023-03-01T03:35:40;4.73;;;4.43;;
6432;SDS011;3249;42.690;23.260;2023-03-01T03:38:11;5.60;;;5.10;;
6432;SDS011;3249;42.690;23.260;2023-03-01T03:40:45;4.83;;;4.53;;
6432;SDS011;3249;42.690;23.260;2023-03-01T03:43:16;4.67;;;4.37;;
6432;SDS011;3249;42.690;23.260;2023-03-01T03:45:49;5.87;;;5.37;;
6432;SDS011;3249;42.690;23.260;2023-03-01T03:48:19;4.67;;;4.37;;
6432;SDS011;3249;42.690;23.260;2023-03-01T03:50:49;5.37;;;4.73;;
6432;SDS011;3249;42.690;23.260;2023-03-01T03:53:20;5.47;;;5.07;;
6432;SDS011;3249;42.690;23.260;2023-03-01T03:55:50;4.43;;;4.13;;
6432;SDS011;3249;42.690;23.260;2023-03-01T03:58:19;6.20;;;5.70;;
6432;SDS011;3249;42.690;23.260;2023-03-01T04:00:54;5.47;;;4.97;;
6432;SDS011;3249;42.690;23.260;2023-03-01T04:03:26;6.70;;;6.20;;
6432;SDS011;3249;42.690;23.260;2023-03-01T04:05:57;7.67;;;6.97;;
6432;SDS011;3249;42.690;23.260;2023-03-01T04:08:26;5.63;;;5.23;;
6432;SDS011;3249;42.690;23.260;2023-03-01T04:10:57;6.93;;;6.33;;
6432;SDS011;3249;42.690;23.260;2023-03-01T04:13:48;5.27;;;4.87;;
6432;SDS011;3249;42.690;23.260;2023-03-01T04:16:20;4.90;;;4.50;;
6432;SDS011;3249;42.690;23.260;2023-03-01T04:18:49;5.40;;;5.00;;
6432;SDS011;3249;42.690;23.260;2023-03-01T04:21:19;6.53;;;6.03;;
6432;SDS011;3249;42.690;23.260;2023-03-01T04:23:48;5.30;;;4.90;;
6432;SDS011;3249;42.690;23.260;2023-03-01T04:26:17;5.53;;;5.13;;
6432;SDS011;3249;42.690;23.260;2023-03-01T04:28:47;5.07;;;4.67;;
6432;SDS011;3249;42.690;23.260;2023-03-01T04:31:17;5.00;;;4.60;;
6432;SDS011;3249;42.690;23.260;2023-03-01T04:33:50;5.77;;;5.33;;
6432;SDS011;3249;42.690;23.260;2023-03-01T04:36:20;5.00;;;4.60;;
6432;SDS011;3249;42.690;23.260;2023-03-01T04:38:50;5.67;;;5.13;;
6432;SDS011;3249;42.690;23.260;2023-03-01T04:41:19;6.80;;;6.30;;
6432;SDS011;3249;42.690;23.260;2023-03-01T04:43:50;6.90;;;6.30;;
6432;SDS011;3249;42.690;23.260;2023-03-01T04:46:22;6.30;;;5.80;;
6432;SDS011;3249;42.690;23.260;2023-03-01T04:48:51;5.37;;;4.87;;
6432;SDS011;3249;42.690;23.260;2023-03-01T04:51:19;5.60;;;5.20;;
6432;SDS011;3249;42.690;23.260;2023-03-01T04:53:49;6.40;;;5.90;;
6432;SDS011;3249;42.690;23.260;2023-03-01T04:56:17;7.47;;;6.80;;
6432;SDS011;3249;42.690;23.260;2023-03-01T04:58:48;8.17;;;6.27;;
6432;SDS011;3249;42.690;23.260;2023-03-01T05:01:18;6.00;;;5.50;;
6432;SDS011;3249;42.690;23.260;2023-03-01T05:03:51;8.00;;;5.80;;
6432;SDS011;3249;42.690;23.260;2023-03-01T05:06:20;5.13;;;4.73;;
6432;SDS011;3249;42.690;23.260;2023-03-01T05:08:49;4.60;;;4.30;;
6432;SDS011;3249;42.690;23.260;2023-03-01T05:11:18;5.60;;;5.03;;
6432;SDS011;3249;42.690;23.260;2023-03-01T05:13:47;5.50;;;5.10;;
6432;SDS011;3249;42.690;23.260;2023-03-01T05:16:20;5.33;;;4.20;;
6432;SDS011;3249;42.690;23.260;2023-03-01T05:18:51;5.90;;;5.47;;
6432;SDS011;3249;42.690;23.260;2023-03-01T05:21:21;6.70;;;5.80;;
6432;SDS011;3249;42.690;23.260;2023-03-01T05:23:50;5.93;;;5.43;;
6432;SDS011;3249;42.690;23.260;2023-03-01T05:26:19;7.20;;;6.70;;
6432;SDS011;3249;42.690;23.260;2023-03-01T05:28:54;7.40;;;6.80;;
6432;SDS011;3249;42.690;23.260;2023-03-01T05:31:24;5.97;;;5.47;;
6432;SDS011;3249;42.690;23.260;2023-03-01T05:33:56;5.80;;;5.30;;
6432;SDS011;3249;42.690;23.260;2023-03-01T05:36:25;5.50;;;5.07;;
6432;SDS011;3249;42.690;23.260;2023-03-01T05:38:54;5.90;;;5.30;;
6432;SDS011;3249;42.690;23.260;2023-03-01T05:41:23;5.87;;;5.37;;
6432;SDS011;3249;42.690;23.260;2023-03-01T05:43:52;5.80;;;5.40;;
6432;SDS011;3249;42.690;23.260;2023-03-01T05:46:21;5.70;;;5.30;;
6432;SDS011;3249;42.690;23.260;2023-03-01T05:48:50;7.03;;;6.43;;
6432;SDS011;3249;42.690;23.260;2023-03-01T05:51:21;8.80;;;6.97;;
6432;SDS011;3249;42.690;23.260;2023-03-01T05:53:51;9.47;;;8.57;;
6432;SDS011;3249;42.690;23.260;2023-03-01T05:56:20;10.03;;;9.03;;
6432;SDS011;3249;42.690;23.260;2023-03-01T05:58:50;10.00;;;9.10;;
6432;SDS011;3249;42.690;23.260;2023-03-01T06:01:20;8.90;;;7.57;;
6432;SDS011;3249;42.690;23.260;2023-03-01T06:03:49;8.73;;;6.87;;
6432;SDS011;3249;42.690;23.260;2023-03-01T06:06:18;9.13;;;8.30;;
6432;SDS011;3249;42.690;23.260;2023-03-01T06:08:49;7.80;;;7.10;;
6432;SDS011;3249;42.690;23.260;2023-03-01T06:11:18;9.43;;;8.47;;
6432;SDS011;3249;42.690;23.260;2023-03-01T06:13:47;7.87;;;7.13;;
6432;SDS011;3249;42.690;23.260;2023-03-01T06:16:16;10.83;;;9.50;;
6432;SDS011;3249;42.690;23.260;2023-03-01T06:18:45;5.80;;;5.30;;
6432;SDS011;3249;42.690;23.260;2023-03-01T06:21:14;7.73;;;7.13;;
6432;SDS011;3249;42.690;23.260;2023-03-01T06:23:43;8.30;;;7.50;;
6432;SDS011;3249;42.690;23.260;2023-03-01T06:26:15;7.33;;;6.67;;
6432;SDS011;3249;42.690;23.260;2023-03-01T06:28:44;14.67;;;13.20;;
6432;SDS011;3249;42.690;23.260;2023-03-01T06:31:13;30.90;;;27.70;;
6432;SDS011;3249;42.690;23.260;2023-03-01T06:33:43;26.80;;;23.90;;
6432;SDS011;3249;42.690;23.260;2023-03-01T06:36:13;11.83;;;8.93;;
6432;SDS011;3249;42.690;23.260;2023-03-01T06:38:44;6.50;;;5.80;;
6432;SDS011;3249;42.690;23.260;2023-03-01T06:41:15;6.63;;;6.03;;
6432;SDS011;3249;42.690;23.260;2023-03-01T06:43:45;7.97;;;7.00;;
6432;SDS011;3249;42.690;23.260;2023-03-01T06:46:16;7.80;;;6.57;;
6432;SDS011;3249;42.690;23.260;2023-03-01T06:48:46;7.40;;;6.73;;
6432;SDS011;3249;42.690;23.260;2023-03-01T06:51:15;7.10;;;6.40;;
6432;SDS011;3249;42.690;23.260;2023-03-01T06:53:45;12.30;;;11.10;;
6432;SDS011;3249;42.690;23.260;2023-03-01T06:56:17;14.50;;;13.00;;
6432;SDS011;3249;42.690;23.260;2023-03-01T06:58:46;6.70;;;6.07;;
6432;SDS011;3249;42.690;23.260;2023-03-01T07:01:15;8.83;;;7.93;;
6432;SDS011;3249;42.690;23.260;2023-03-01T07:03:45;13.77;;;12.17;;
6432;SDS011;3249;42.690;23.260;2023-03-01T07:06:14;6.37;;;5.87;;
6432;SDS011;3249;42.690;23.260;2023-03-01T07:08:43;5.73;;;5.33;;
6432;SDS011;3249;42.690;23.260;2023-03-01T07:11:12;5.90;;;5.40;;
6432;SDS011;3249;42.690;23.260;2023-03-01T07:13:44;5.13;;;4.70;;
6432;SDS011;3249;42.690;23.260;2023-03-01T07:16:13;6.13;;;4.93;;
6432;SDS011;3249;42.690;23.260;2023-03-01T07:18:42;6.00;;;5.50;;
6432;SDS011;3249;42.690;23.260;2023-03-01T07:21:12;5.77;;;5.27;;
6432;SDS011;3249;42.690;23.260;2023-03-01T07:23:42;4.93;;;4.63;;
6432;SDS011;3249;42.690;23.260;2023-03-01T07:26:11;5.17;;;4.80;;
6432;SDS011;3249;42.690;23.260;2023-03-01T07:28:40;4.87;;;4.57;;
6432;SDS011;3249;42.690;23.260;2023-03-01T07:31:11;4.83;;;4.43;;
6432;SDS011;3249;42.690;23.260;2023-03-01T07:33:41;5.37;;;4.87;;
6432;SDS011;3249;42.690;23.260;2023-03-01T07:36:10;6.47;;;5.43;;
6432;SDS011;3249;42.690;23.260;2023-03-01T07:38:39;5.20;;;4.63;;
6432;SDS011;3249;42.690;23.260;2023-03-01T07:41:08;5.10;;;4.60;;
6432;SDS011;3249;42.690;23.260;2023-03-01T07:43:37;9.60;;;5.73;;
6432;SDS011;3249;42.690;23.260;2023-03-01T07:46:06;6.70;;;6.07;;
6432;SDS011;3249;42.690;23.260;2023-03-01T07:48:38;6.90;;;6.17;;
6432;SDS011;3249;42.690;23.260;2023-03-01T07:51:08;6.40;;;5.90;;
6432;SDS011;3249;42.690;23.260;2023-03-01T07:53:38;6.30;;;5.70;;
6432;SDS011;3249;42.690;23.260;2023-03-01T07:56:07;6.50;;;5.90;;
6432;SDS011;3249;42.690;23.260;2023-03-01T07:58:38;6.27;;;4.63;;
6432;SDS011;3249;42.690;23.260;2023-03-01T08:01:09;5.80;;;5.30;;
6432;SDS011;3249;42.690;23.260;2023-03-01T08:03:42;5.37;;;4.87;;
6432;SDS011;3249;42.690;23.260;2023-03-01T08:06:13;5.93;;;5.53;;
6432;SDS011;3249;42.690;23.260;2023-03-01T08:08:43;5.63;;;5.13;;
6432;SDS011;3249;42.690;23.260;2023-03-01T08:11:13;6.00;;;5.50;;
6432;SDS011;3249;42.690;23.260;2023-03-01T08:13:43;5.43;;;4.90;;
6432;SDS011;3249;42.690;23.260;2023-03-01T08:16:16;6.70;;;6.10;;
6432;SDS011;3249;42.690;23.260;2023-03-01T08:18:47;7.40;;;5.77;;
6432;SDS011;3249;42.690;23.260;2023-03-01T08:21:18;4.87;;;4.33;;
6432;SDS011;3249;42.690;23.260;2023-03-01T08:23:47;7.93;;;7.23;;
6432;SDS011;3249;42.690;23.260;2023-03-01T08:26:17;9.13;;;6.50;;
6432;SDS011;3249;42.690;23.260;2023-03-01T08:28:48;5.73;;;5.07;;
6432;SDS011;3249;42.690;23.260;2023-03-01T08:31:19;5.67;;;5.20;;
6432;SDS011;3249;42.690;23.260;2023-03-01T08:33:54;6.07;;;5.43;;
6432;SDS011;3249;42.690;23.260;2023-03-01T08:36:25;6.17;;;5.63;;
6432;SDS011;3249;42.690;23.260;2023-03-01T08:38:56;6.90;;;6.30;;
6432;SDS011;3249;42.690;23.260;2023-03-01T08:41:26;8.90;;;5.90;;
6432;SDS011;3249;42.690;23.260;2023-03-01T08:43:55;8.30;;;6.77;;
6432;SDS011;3249;42.690;23.260;2023-03-01T08:46:27;7.60;;;5.90;;
6432;SDS011;3249;42.690;23.260;2023-03-01T08:49:02;5.33;;;4.93;;
6432;SDS011;3249;42.690;23.260;2023-03-01T08:51:33;6.67;;;6.17;;
6432;SDS011;3249;42.690;23.260;2023-03-01T08:54:03;7.20;;;6.13;;
6432;SDS011;3249;42.690;23.260;2023-03-01T08:57:01;6.33;;;5.83;;
6432;SDS011;3249;42.690;23.260;2023-03-01T08:59:39;5.90;;;5.40;;
6432;SDS011;3249;42.690;23.260;2023-03-01T09:02:14;6.27;;;5.77;;
6432;SDS011;3249;42.690;23.260;2023-03-01T09:04:49;5.87;;;5.47;;
6432;SDS011;3249;42.690;23.260;2023-03-01T09:07:18;5.63;;;5.13;;
6432;SDS011;3249;42.690;23.260;2023-03-01T09:09:47;8.10;;;4.87;;
6432;SDS011;3249;42.690;23.260;2023-03-01T09:12:19;8.70;;;5.83;;
6432;SDS011;3249;42.690;23.260;2023-03-01T09:14:48;4.80;;;4.43;;
6432;SDS011;3249;42.690;23.260;2023-03-01T09:17:17;4.67;;;4.27;;
6432;SDS011;3249;42.690;23.260;2023-03-01T09:25:56;5.33;;;4.67;;
6432;SDS011;3249;42.690;23.260;2023-03-01T09:28:25;5.90;;;4.27;;
6432;SDS011;3249;42.690;23.260;2023-03-01T09:30:57;4.97;;;4.47;;
6432;SDS011;3249;42.690;23.260;2023-03-01T09:33:28;3.83;;;3.53;;
6432;SDS011;3249;42.690;23.260;2023-03-01T09:35:58;5.20;;;4.70;;
6432;SDS011;3249;42.690;23.260;2023-03-01T09:38:31;4.90;;;4.50;;
6432;SDS011;3249;42.690;23.260;2023-03-01T09:41:00;3.93;;;3.57;;
6432;SDS011;3249;42.690;23.260;2023-03-01T09:43:31;4.40;;;4.03;;
6432;SDS011;3249;42.690;23.260;2023-03-01T09:46:10;3.77;;;3.50;;
6432;SDS011;3249;42.690;23.260;2023-03-01T09:48:43;3.70;;;3.40;;
6432;SDS011;3249;42.690;23.260;2023-03-01T09:51:15;3.93;;;3.63;;
6432;SDS011;3249;42.690;23.260;2023-03-01T09:53:50;4.60;;;4.23;;
6432;SDS011;3249;42.690;23.260;2023-03-01T09:56:21;5.93;;;4.00;;
6432;SDS011;3249;42.690;23.260;2023-03-01T09:58:58;4.70;;;4.30;;
6432;SDS011;3249;42.690;23.260;2023-03-01T10:01:35;5.43;;;4.67;;
6432;SDS011;3249;42.690;23.260;2023-03-01T10:07:14;3.80;;;3.50;;
6432;SDS011;3249;42.690;23.260;2023-03-01T10:09:54;5.73;;;4.10;;
6432;SDS011;3249;42.690;23.260;2023-03-01T10:12:25;6.00;;;3.93;;
6432;SDS011;3249;42.690;23.260;2023-03-01T10:15:00;3.53;;;3.33;;
6432;SDS011;3249;42.690;23.260;2023-03-01T10:17:38;3.20;;;3.00;;
6432;SDS011;3249;42.690;23.260;2023-03-01T10:20:19;3.50;;;3.20;;
6432;SDS011;3249;42.690;23.260;2023-03-01T10:22:50;3.23;;;3.03;;
6432;SDS011;3249;42.690;23.260;2023-03-01T10:25:28;4.27;;;3.97;;
6432;SDS011;3249;42.690;23.260;2023-03-01T10:28:10;4.03;;;3.63;;
6432;SDS011;3249;42.690;23.260;2023-03-01T10:30:49;3.53;;;3.33;;
6432;SDS011;3249;42.690;23.260;2023-03-01T10:33:20;4.13;;;3.83;;
6432;SDS011;3249;42.690;23.260;2023-03-01T10:35:58;4.40;;;4.10;;
6432;SDS011;3249;42.690;23.260;2023-03-01T10:38:27;4.33;;;3.93;;
6432;SDS011;3249;42.690;23.260;2023-03-01T10:41:04;6.23;;;3.90;;
6432;SDS011;3249;42.690;23.260;2023-03-01T10:43:42;4.30;;;4.10;;
6432;SDS011;3249;42.690;23.260;2023-03-01T10:46:22;4.53;;;4.20;;
6432;SDS011;3249;42.690;23.260;2023-03-01T10:49:06;4.00;;;3.73;;
6432;SDS011;3249;42.690;23.260;2023-03-01T10:51:42;4.00;;;3.70;;
6432;SDS011;3249;42.690;23.260;2023-03-01T10:54:17;3.93;;;3.63;;
6432;SDS011;3249;42.690;23.260;2023-03-01T10:56:51;4.83;;;4.43;;
6432;SDS011;3249;42.690;23.260;2023-03-01T10:59:23;4.87;;;3.50;;
6432;SDS011;3249;42.690;23.260;2023-03-01T11:02:03;4.53;;;4.13;;
6432;SDS011;3249;42.690;23.260;2023-03-01T11:04:56;5.77;;;3.90;;
6432;SDS011;3249;42.690;23.260;2023-03-01T11:07:26;3.80;;;3.60;;
6432;SDS011;3249;42.690;23.260;2023-03-01T11:09:56;7.77;;;4.30;;
6432;SDS011;3249;42.690;23.260;2023-03-01T11:12:28;5.43;;;4.90;;
6432;SDS011;3249;42.690;23.260;2023-03-01T11:14:58;4.93;;;4.53;;
6432;SDS011;3249;42.690;23.260;2023-03-01T11:17:28;5.00;;;4.43;;
6432;SDS011;3249;42.690;23.260;2023-03-01T11:20:06;3.67;;;3.43;;
6432;SDS011;3249;42.690;23.260;2023-03-01T11:22:49;3.77;;;3.47;;
6432;SDS011;3249;42.690;23.260;2023-03-01T11:25:24;3.77;;;3.33;;
6432;SDS011;3249;42.690;23.260;2023-03-01T11:27:57;5.47;;;3.17;;
6432;SDS011;3249;42.690;23.260;2023-03-01T11:30:32;4.00;;;3.60;;
6432;SDS011;3249;42.690;23.260;2023-03-01T11:33:13;4.10;;;3.80;;
6432;SDS011;3249;42.690;23.260;2023-03-01T11:35:49;7.67;;;5.50;;
6432;SDS011;3249;42.690;23.260;2023-03-01T11:38:26;5.23;;;4.17;;
6432;SDS011;3249;42.690;23.260;2023-03-01T11:41:00;5.70;;;3.80;;
6432;SDS011;3249;42.690;23.260;2023-03-01T11:43:42;6.00;;;4.17;;
6432;SDS011;3249;42.690;23.260;2023-03-01T11:46:31;5.50;;;3.87;;
6432;SDS011;3249;42.690;23.260;2023-03-01T11:49:16;5.33;;;4.10;;
6432;SDS011;3249;42.690;23.260;2023-03-01T11:52:01;10.63;;;8.17;;
6432;SDS011;3249;42.690;23.260;2023-03-01T11:54:41;18.23;;;14.80;;
6432;SDS011;3249;42.690;23.260;2023-03-01T11:57:26;15.57;;;14.10;;
6432;SDS011;3249;42.690;23.260;2023-03-01T12:03:28;6.73;;;5.73;;
6432;SDS011;3249;42.690;23.260;2023-03-01T12:09:06;3.80;;;3.60;;
6432;SDS011;3249;42.690;23.260;2023-03-01T12:11:50;4.97;;;4.10;;
6432;SDS011;3249;42.690;23.260;2023-03-01T12:14:50;4.93;;;4.47;;
6432;SDS011;3249;42.690;23.260;2023-03-01T12:20:29;5.57;;;4.20;;
6432;SDS011;3249;42.690;23.260;2023-03-01T12:26:16;7.97;;;4.60;;
6432;SDS011;3249;42.690;23.260;2023-03-01T12:28:54;5.30;;;4.80;;
6432;SDS011;3249;42.690;23.260;2023-03-01T12:31:50;5.07;;;4.67;;
6432;SDS011;3249;42.690;23.260;2023-03-01T12:34:44;6.57;;;4.87;;
6432;SDS011;3249;42.690;23.260;2023-03-01T12:37:29;5.77;;;4.57;;
6432;SDS011;3249;42.690;23.260;2023-03-01T12:40:23;5.80;;;4.47;;
6432;SDS011;3249;42.690;23.260;2023-03-01T12:43:06;6.27;;;4.97;;
6432;SDS011;3249;42.690;23.260;2023-03-01T12:45:47;5.33;;;4.80;;
6432;SDS011;3249;42.690;23.260;2023-03-01T12:48:37;7.57;;;5.30;;
6432;SDS011;3249;42.690;23.260;2023-03-01T12:51:13;4.97;;;4.57;;
6432;SDS011;3249;42.690;23.260;2023-03-01T12:53:47;5.97;;;4.73;;
6432;SDS011;3249;42.690;23.260;2023-03-01T12:56:18;8.17;;;5.37;;
6432;SDS011;3249;42.690;23.260;2023-03-01T12:58:53;6.60;;;5.53;;
6432;SDS011;3249;42.690;23.260;2023-03-01T13:01:33;5.80;;;5.40;;
6432;SDS011;3249;42.690;23.260;2023-03-01T13:04:12;4.43;;;4.13;;
6432;SDS011;3249;42.690;23.260;2023-03-01T13:06:55;5.10;;;4.70;;
6432;SDS011;3249;42.690;23.260;2023-03-01T13:09:37;6.13;;;5.60;;
6432;SDS011;3249;42.690;23.260;2023-03-01T13:18:03;5.60;;;5.20;;
6432;SDS011;3249;42.690;23.260;2023-03-01T13:20:54;5.03;;;4.63;;
6432;SDS011;3249;42.690;23.260;2023-03-01T13:23:26;5.27;;;4.87;;
6432;SDS011;3249;42.690;23.260;2023-03-01T13:26:05;5.77;;;5.27;;
6432;SDS011;3249;42.690;23.260;2023-03-01T13:28:47;6.07;;;4.77;;
6432;SDS011;3249;42.690;23.260;2023-03-01T13:34:39;4.57;;;4.27;;
6432;SDS011;3249;42.690;23.260;2023-03-01T13:37:19;5.23;;;4.73;;
6432;SDS011;3249;42.690;23.260;2023-03-01T13:40:01;5.20;;;4.80;;
6432;SDS011;3249;42.690;23.260;2023-03-01T13:42:51;6.07;;;4.83;;
6432;SDS011;3249;42.690;23.260;2023-03-01T13:45:26;8.43;;;5.27;;
6432;SDS011;3249;42.690;23.260;2023-03-01T13:48:15;8.87;;;5.43;;
6432;SDS011;3249;42.690;23.260;2023-03-01T13:50:52;6.67;;;5.10;;
6432;SDS011;3249;42.690;23.260;2023-03-01T13:53:29;7.63;;;5.53;;
6432;SDS011;3249;42.690;23.260;2023-03-01T13:56:03;6.23;;;5.37;;
6432;SDS011;3249;42.690;23.260;2023-03-01T13:58:53;5.97;;;5.47;;
6432;SDS011;3249;42.690;23.260;2023-03-01T14:01:27;8.80;;;5.80;;
6432;SDS011;3249;42.690;23.260;2023-03-01T14:03:58;11.00;;;6.60;;
6432;SDS011;3249;42.690;23.260;2023-03-01T14:06:31;10.23;;;6.57;;
6432;SDS011;3249;42.690;23.260;2023-03-01T14:09:05;5.60;;;5.00;;
6432;SDS011;3249;42.690;23.260;2023-03-01T14:14:49;6.97;;;5.50;;
6432;SDS011;3249;42.690;23.260;2023-03-01T14:17:29;5.93;;;5.33;;
6432;SDS011;3249;42.690;23.260;2023-03-01T14:20:17;5.17;;;4.80;;
6432;SDS011;3249;42.690;23.260;2023-03-01T14:22:48;6.53;;;5.93;;
6432;SDS011;3249;42.690;23.260;2023-03-01T14:25:22;9.13;;;7.00;;
6432;SDS011;3249;42.690;23.260;2023-03-01T14:28:03;8.80;;;6.37;;
6432;SDS011;3249;42.690;23.260;2023-03-01T14:30:45;8.97;;;6.30;;
6432;SDS011;3249;42.690;23.260;2023-03-01T14:33:18;5.83;;;5.10;;
6432;SDS011;3249;42.690;23.260;2023-03-01T14:35:53;8.17;;;5.83;;
6432;SDS011;3249;42.690;23.260;2023-03-01T14:38:28;6.40;;;5.90;;
6432;SDS011;3249;42.690;23.260;2023-03-01T14:41:00;7.83;;;4.70;;
6432;SDS011;3249;42.690;23.260;2023-03-01T14:43:31;5.20;;;4.77;;
6432;SDS011;3249;42.690;23.260;2023-03-01T14:46:04;5.90;;;4.90;;
6432;SDS011;3249;42.690;23.260;2023-03-01T14:48:34;6.67;;;4.63;;
6432;SDS011;3249;42.690;23.260;2023-03-01T14:51:04;6.97;;;5.00;;
6432;SDS011;3249;42.690;23.260;2023-03-01T14:53:34;8.03;;;5.23;;
6432;SDS011;3249;42.690;23.260;2023-03-01T14:56:05;7.80;;;5.00;;
6432;SDS011;3249;42.690;23.260;2023-03-01T14:58:43;12.40;;;8.07;;
6432;SDS011;3249;42.690;23.260;2023-03-01T15:01:16;5.67;;;4.63;;
6432;SDS011;3249;42.690;23.260;2023-03-01T15:03:47;4.97;;;4.37;;
6432;SDS011;3249;42.690;23.260;2023-03-01T15:06:18;5.40;;;4.43;;
6432;SDS011;3249;42.690;23.260;2023-03-01T15:08:50;6.60;;;4.70;;
6432;SDS011;3249;42.690;23.260;2023-03-01T15:11:23;6.80;;;5.30;;
6432;SDS011;3249;42.690;23.260;2023-03-01T15:13:55;6.87;;;5.13;;
6432;SDS011;3249;42.690;23.260;2023-03-01T15:16:29;5.20;;;4.33;;
6432;SDS011;3249;42.690;23.260;2023-03-01T15:19:00;4.73;;;4.40;;
6432;SDS011;3249;42.690;23.260;2023-03-01T15:21:31;7.40;;;4.90;;
6432;SDS011;3249;42.690;23.260;2023-03-01T15:24:04;7.53;;;4.70;;
6432;SDS011;3249;42.690;23.260;2023-03-01T15:26:37;6.60;;;5.03;;
6432;SDS011;3249;42.690;23.260;2023-03-01T15:29:15;5.60;;;5.00;;
6432;SDS011;3249;42.690;23.260;2023-03-01T15:31:57;6.27;;;5.10;;
6432;SDS011;3249;42.690;23.260;2023-03-01T15:34:29;5.43;;;4.93;;
6432;SDS011;3249;42.690;23.260;2023-03-01T15:37:00;6.17;;;4.93;;
6432;SDS011;3249;42.690;23.260;2023-03-01T15:39:36;7.50;;;5.20;;
6432;SDS011;3249;42.690;23.260;2023-03-01T15:42:09;10.87;;;8.93;;
6432;SDS011;3249;42.690;23.260;2023-03-01T15:44:43;7.30;;;6.20;;
6432;SDS011;3249;42.690;23.260;2023-03-01T15:47:26;7.30;;;6.40;;
6432;SDS011;3249;42.690;23.260;2023-03-01T15:49:57;6.23;;;5.30;;
6432;SDS011;3249;42.690;23.260;2023-03-01T15:52:29;5.33;;;4.83;;
6432;SDS011;3249;42.690;23.260;2023-03-01T15:55:07;6.63;;;5.97;;
6432;SDS011;3249;42.690;23.260;2023-03-01T15:57:45;5.30;;;4.80;;
6432;SDS011;3249;42.690;23.260;2023-03-01T16:00:15;6.90;;;5.50;;
6432;SDS011;3249;42.690;23.260;2023-03-01T16:02:48;7.13;;;5.97;;
6432;SDS011;3249;42.690;23.260;2023-03-01T16:05:18;9.47;;;5.50;;
6432;SDS011;3249;42.690;23.260;2023-03-01T16:07:49;5.13;;;4.13;;
6432;SDS011;3249;42.690;23.260;2023-03-01T16:10:19;6.57;;;5.07;;
6432;SDS011;3249;42.690;23.260;2023-03-01T16:12:49;6.40;;;4.87;;
6432;SDS011;3249;42.690;23.260;2023-03-01T16:15:19;5.63;;;5.13;;